Time;durP1;ratioP1;P1;durP2;ratioP2;P2;SDS_P1;SDS_P2;PMS_P1;PMS_P2;Temp;Humidity;BMP_temperature;BMP_pressure;BME280_temperature;BME280_humidity;BME280_pressure;Samples;Min_cycle;Max_cycle;Signal;HPM_P1;HPM_P2
2021/12/06 00:01:58;;;;;;;60.67;28.80;;;;;;;;;;6015947;23;20022;-90
2021/12/06 00:04:26;;;;;;;58.90;27.90;;;;;;;;;;6015591;23;20082;-90
2021/12/06 00:06:54;;;;;;;59.92;28.00;;;;;;;;;;6039095;23;20050;-89
2021/12/06 00:09:22;;;;;;;60.72;28.23;;;;;;;;;;6015888;23;20363;-90
2021/12/06 00:11:56;;;;;;;63.15;28.48;;;;;;;;;;6015825;23;20011;-90
2021/12/06 00:14:27;;;;;;;60.67;27.08;;;;;;;;;;6015152;23;20039;-90
2021/12/06 00:16:53;;;;;;;68.15;30.42;;;;;;;;;;6014806;23;20015;-90
2021/12/06 00:19:19;;;;;;;67.30;29.52;;;;;;;;;;6015784;23;20023;-90
2021/12/06 00:21:45;;;;;;;69.60;30.77;;;;;;;;;;6015858;23;20019;-90
2021/12/06 00:24:11;;;;;;;67.15;29.27;;;;;;;;;;6015466;23;20757;-89
2021/12/06 00:26:37;;;;;;;65.10;29.02;;;;;;;;;;6015432;23;20030;-90
2021/12/06 00:29:03;;;;;;;75.07;31.70;;;;;;;;;;6015246;23;20041;-89
2021/12/06 00:31:33;;;;;;;65.05;28.45;;;;;;;;;;6015142;23;20026;-90
2021/12/06 00:34:03;;;;;;;71.85;30.75;;;;;;;;;;6015035;23;20051;-90
2021/12/06 00:36:31;;;;;;;72.35;30.52;;;;;;;;;;6039321;23;20018;-90
2021/12/06 00:38:58;;;;;;;70.57;30.77;;;;;;;;;;6038728;23;20023;-90
2021/12/06 00:41:24;;;;;;;70.80;30.60;;;;;;;;;;6039334;23;20015;-90
2021/12/06 00:43:51;;;;;;;71.53;30.52;;;;;;;;;;6015725;23;20050;-89
2021/12/06 00:46:17;;;;;;;77.85;31.25;;;;;;;;;;6039025;23;20019;-90
2021/12/06 00:48:43;;;;;;;75.60;31.55;;;;;;;;;;6038767;23;20027;-90
2021/12/06 00:51:11;;;;;;;85.53;32.20;;;;;;;;;;6015383;23;20015;-90
2021/12/06 00:53:37;;;;;;;78.45;32.40;;;;;;;;;;6038413;23;20019;-90
2021/12/06 00:56:04;;;;;;;75.47;33.05;;;;;;;;;;6038932;23;20026;-88
2021/12/06 00:58:30;;;;;;;76.40;31.27;;;;;;;;;;6015383;23;20019;-90
2021/12/06 01:00:56;;;;;;;78.07;31.98;;;;;;;;;;6015163;23;20041;-90
2021/12/06 01:03:25;;;;;;;73.93;30.95;;;;;;;;;;6015553;23;20050;-90
2021/12/06 01:05:51;;;;;;;75.38;31.58;;;;;;;;;;6014750;23;20030;-90
2021/12/06 01:08:17;;;;;;;80.82;32.03;;;;;;;;;;6015145;23;20019;-90
2021/12/06 01:10:44;;;;;;;82.68;31.92;;;;;;;;;;6015050;23;20395;-90
2021/12/06 01:13:10;;;;;;;84.15;34.17;;;;;;;;;;6015301;23;20138;-90
2021/12/06 01:15:37;;;;;;;79.47;31.85;;;;;;;;;;6015085;23;20019;-90
2021/12/06 01:18:04;;;;;;;82.38;32.78;;;;;;;;;;6015030;23;20091;-90
2021/12/06 01:20:32;;;;;;;79.05;30.98;;;;;;;;;;6015278;23;20018;-90
2021/12/06 01:23:03;;;;;;;87.57;33.03;;;;;;;;;;6014933;23;20029;-89
2021/12/06 01:25:51;;;;;;;80.20;32.22;;;;;;;;;;6015335;23;20018;-90
2021/12/06 01:31:09;;;;;;;78.72;31.92;;;;;;;;;;6038222;23;20157;-89
2021/12/06 01:41:35;;;;;;;78.78;32.05;;;;;;;;;;6038738;23;20079;-89
2021/12/06 01:44:02;;;;;;;80.90;32.40;;;;;;;;;;6038592;23;20364;-89
2021/12/06 01:46:28;;;;;;;78.68;32.13;;;;;;;;;;6038123;23;20018;-89
2021/12/06 01:48:54;;;;;;;78.07;32.88;;;;;;;;;;6038606;23;20356;-88
2021/12/06 01:51:20;;;;;;;82.13;32.20;;;;;;;;;;6014408;23;20015;-89
2021/12/06 01:53:46;;;;;;;84.00;32.72;;;;;;;;;;6014664;23;20468;-89
2021/12/06 01:56:12;;;;;;;77.38;32.30;;;;;;;;;;6015111;23;20026;-89
2021/12/06 01:58:38;;;;;;;85.40;33.65;;;;;;;;;;6038424;23;20011;-89
2021/12/06 02:01:04;;;;;;;89.28;34.60;;;;;;;;;;6038254;23;20349;-89
2021/12/06 02:03:31;;;;;;;80.03;32.15;;;;;;;;;;6038080;23;20015;-88
2021/12/06 02:05:57;;;;;;;81.35;32.42;;;;;;;;;;6037333;23;20023;-89
2021/12/06 02:08:23;;;;;;;77.32;31.95;;;;;;;;;;6038613;23;20393;-89
2021/12/06 02:10:49;;;;;;;82.03;32.85;;;;;;;;;;6037969;23;20509;-89
2021/12/06 02:13:15;;;;;;;77.80;30.50;;;;;;;;;;6014643;23;20116;-88
2021/12/06 02:15:47;;;;;;;87.28;34.28;;;;;;;;;;6038165;23;20026;-89
2021/12/06 02:18:39;;;;;;;84.50;33.03;;;;;;;;;;6014406;23;20022;-89
2021/12/06 02:21:09;;;;;;;82.15;33.05;;;;;;;;;;6036885;23;20023;-88
2021/12/06 02:23:35;;;;;;;82.50;31.77;;;;;;;;;;6014781;23;20022;-89
2021/12/06 02:26:01;;;;;;;82.35;32.10;;;;;;;;;;6014148;23;20489;-89
2021/12/06 02:28:27;;;;;;;79.32;34.22;;;;;;;;;;6014676;23;20042;-89
2021/12/06 02:30:53;;;;;;;89.85;33.85;;;;;;;;;;6014382;23;20050;-89
2021/12/06 02:33:19;;;;;;;78.90;33.05;;;;;;;;;;6014446;23;20023;-88
2021/12/06 02:35:45;;;;;;;90.13;34.67;;;;;;;;;;6013757;23;20015;-88
2021/12/06 02:38:11;;;;;;;90.03;33.47;;;;;;;;;;6014381;23;20471;-88
2021/12/06 02:40:38;;;;;;;77.45;32.10;;;;;;;;;;6014390;23;20502;-88
2021/12/06 02:43:06;;;;;;;86.07;33.65;;;;;;;;;;6014035;23;20022;-89
2021/12/06 02:45:32;;;;;;;82.32;32.10;;;;;;;;;;6014538;23;20029;-88
2021/12/06 02:47:59;;;;;;;81.93;31.95;;;;;;;;;;6014144;23;20018;-88
2021/12/06 02:50:27;;;;;;;89.55;34.10;;;;;;;;;;6014246;23;20329;-88
2021/12/06 02:52:55;;;;;;;86.28;34.15;;;;;;;;;;6014099;23;20026;-88
2021/12/06 02:55:31;;;;;;;81.22;33.30;;;;;;;;;;6014448;23;20026;-88
2021/12/06 02:57:59;;;;;;;90.80;34.10;;;;;;;;;;6014500;23;20048;-88
2021/12/06 03:00:25;;;;;;;88.68;33.90;;;;;;;;;;6014780;23;20055;-89
2021/12/06 03:02:51;;;;;;;84.18;33.22;;;;;;;;;;6014009;23;20171;-89
2021/12/06 03:05:17;;;;;;;91.20;33.85;;;;;;;;;;6014048;23;20095;-89
2021/12/06 03:07:47;;;;;;;91.32;34.63;;;;;;;;;;6013552;23;20019;-88
2021/12/06 03:10:13;;;;;;;89.30;33.88;;;;;;;;;;6013365;23;20356;-88
2021/12/06 03:12:39;;;;;;;92.00;33.63;;;;;;;;;;6037668;23;20015;-89
2021/12/06 03:15:05;;;;;;;98.00;33.20;;;;;;;;;;6037774;23;20530;-88
2021/12/06 03:17:32;;;;;;;94.93;34.53;;;;;;;;;;6040144;23;20093;-89
2021/12/06 03:19:59;;;;;;;100.28;35.30;;;;;;;;;;6015365;23;20030;-88
2021/12/06 03:22:25;;;;;;;96.07;34.22;;;;;;;;;;6015741;23;20015;-88
2021/12/06 03:24:51;;;;;;;96.90;32.70;;;;;;;;;;6015570;23;20208;-88
2021/12/06 03:27:17;;;;;;;94.47;35.05;;;;;;;;;;6016004;23;20018;-89
2021/12/06 03:29:43;;;;;;;94.85;35.40;;;;;;;;;;6015712;23;20026;-88
2021/12/06 03:32:10;;;;;;;106.70;37.05;;;;;;;;;;6016037;23;20019;-89
2021/12/06 03:34:36;;;;;;;107.53;36.13;;;;;;;;;;6015477;23;20087;-88
2021/12/06 03:37:03;;;;;;;106.88;35.33;;;;;;;;;;6015578;23;20027;-88
2021/12/06 03:39:31;;;;;;;107.95;36.05;;;;;;;;;;6016134;23;20026;-89
2021/12/06 03:42:00;;;;;;;109.05;36.50;;;;;;;;;;6015812;23;20023;-89
2021/12/06 03:44:26;;;;;;;113.05;36.88;;;;;;;;;;6016063;23;20015;-88
2021/12/06 03:46:54;;;;;;;102.82;35.38;;;;;;;;;;6014833;23;20030;-89
2021/12/06 03:49:21;;;;;;;99.85;34.85;;;;;;;;;;6016101;23;20015;-88
2021/12/06 03:51:47;;;;;;;107.45;37.42;;;;;;;;;;6015837;23;20025;-89
2021/12/06 03:54:16;;;;;;;108.57;36.92;;;;;;;;;;6016146;23;20075;-89
2021/12/06 03:56:43;;;;;;;119.07;38.33;;;;;;;;;;6015740;23;20026;-88
2021/12/06 03:59:09;;;;;;;113.95;36.97;;;;;;;;;;6015788;23;20019;-89
2021/12/06 04:01:35;;;;;;;120.30;36.88;;;;;;;;;;6015620;23;20026;-89
2021/12/06 04:04:02;;;;;;;119.65;38.97;;;;;;;;;;6015419;23;20018;-88
2021/12/06 04:06:28;;;;;;;109.85;37.60;;;;;;;;;;6039403;23;20534;-89
2021/12/06 04:08:54;;;;;;;106.43;35.75;;;;;;;;;;6015355;23;20097;-88
2021/12/06 04:11:20;;;;;;;119.88;35.90;;;;;;;;;;6015985;23;20022;-88
2021/12/06 04:13:46;;;;;;;107.70;35.80;;;;;;;;;;6015401;23;20015;-88
2021/12/06 04:16:12;;;;;;;117.85;37.53;;;;;;;;;;6015333;23;20015;-88
2021/12/06 04:18:38;;;;;;;115.18;36.15;;;;;;;;;;6015814;23;20463;-89
2021/12/06 04:21:05;;;;;;;116.13;37.05;;;;;;;;;;6015521;23;20038;-88
2021/12/06 04:23:31;;;;;;;106.00;36.83;;;;;;;;;;6039367;23;20027;-89
2021/12/06 04:25:57;;;;;;;112.95;36.38;;;;;;;;;;6015351;23;20095;-86
2021/12/06 04:28:24;;;;;;;113.28;36.30;;;;;;;;;;6015073;23;20054;-88
2021/12/06 04:30:51;;;;;;;117.90;37.15;;;;;;;;;;6038600;23;20047;-88
2021/12/06 04:33:17;;;;;;;112.13;36.08;;;;;;;;;;6015393;23;20030;-88
2021/12/06 04:35:44;;;;;;;111.38;35.00;;;;;;;;;;6015000;23;20019;-88
2021/12/06 04:38:10;;;;;;;114.80;36.97;;;;;;;;;;6015329;23;20015;-88
2021/12/06 04:40:36;;;;;;;114.78;36.70;;;;;;;;;;6015139;23;20054;-88
2021/12/06 04:43:03;;;;;;;120.65;36.63;;;;;;;;;;6015086;23;20502;-88
2021/12/06 04:45:29;;;;;;;122.30;37.03;;;;;;;;;;6014948;23;20023;-88
2021/12/06 04:47:55;;;;;;;117.90;37.67;;;;;;;;;;6014998;23;20149;-88
2021/12/06 04:50:24;;;;;;;134.45;39.20;;;;;;;;;;6015244;23;20015;-88
2021/12/06 04:52:51;;;;;;;133.13;38.83;;;;;;;;;;6038805;23;20027;-89
2021/12/06 04:55:23;;;;;;;143.35;41.30;;;;;;;;;;6015221;23;20050;-88
2021/12/06 04:57:49;;;;;;;140.05;40.58;;;;;;;;;;6015083;23;20023;-89
2021/12/06 05:00:28;;;;;;;133.77;38.38;;;;;;;;;;6014789;23;20029;-87
2021/12/06 05:02:54;;;;;;;140.30;40.58;;;;;;;;;;6014964;23;20098;-88
2021/12/06 05:05:29;;;;;;;124.75;37.10;;;;;;;;;;6014957;23;20106;-87
2021/12/06 05:07:57;;;;;;;118.22;35.97;;;;;;;;;;6014924;23;20019;-88
2021/12/06 05:10:23;;;;;;;119.60;36.17;;;;;;;;;;6038443;23;20019;-88
2021/12/06 05:12:50;;;;;;;115.07;34.63;;;;;;;;;;6014745;23;20019;-88
2021/12/06 05:15:16;;;;;;;105.82;33.45;;;;;;;;;;6014816;23;20023;-87
2021/12/06 05:17:44;;;;;;;113.10;36.60;;;;;;;;;;6014714;23;20014;-88
2021/12/06 05:20:11;;;;;;;106.72;34.65;;;;;;;;;;6038321;23;20080;-88
2021/12/06 05:22:37;;;;;;;113.65;35.55;;;;;;;;;;6014931;23;20022;-88
2021/12/06 05:25:03;;;;;;;113.97;35.72;;;;;;;;;;6014922;23;20022;-88
2021/12/06 05:27:30;;;;;;;121.15;35.65;;;;;;;;;;6014556;23;20110;-88
2021/12/06 05:30:00;;;;;;;120.35;36.53;;;;;;;;;;6014165;23;20097;-88
2021/12/06 05:32:28;;;;;;;126.32;37.95;;;;;;;;;;6015022;23;20439;-88
2021/12/06 05:35:04;;;;;;;138.65;39.60;;;;;;;;;;6014507;23;20015;-88
2021/12/06 05:37:30;;;;;;;132.18;37.55;;;;;;;;;;6015013;23;20019;-88
2021/12/06 05:39:56;;;;;;;136.70;38.67;;;;;;;;;;6014557;23;20019;-88
2021/12/06 05:42:22;;;;;;;129.52;37.47;;;;;;;;;;6014833;23;20023;-88
2021/12/06 05:44:49;;;;;;;135.77;36.58;;;;;;;;;;6014296;23;20018;-89
2021/12/06 05:47:15;;;;;;;142.30;38.50;;;;;;;;;;6015104;23;20483;-88
2021/12/06 05:49:42;;;;;;;146.20;39.40;;;;;;;;;;6014656;23;20029;-89
2021/12/06 05:52:08;;;;;;;140.13;38.72;;;;;;;;;;6014539;23;20451;-88
2021/12/06 05:54:34;;;;;;;146.70;40.45;;;;;;;;;;6038329;23;20025;-88
2021/12/06 05:57:01;;;;;;;158.13;39.90;;;;;;;;;;6014780;23;20448;-89
2021/12/06 05:59:27;;;;;;;143.50;39.05;;;;;;;;;;6014581;23;20014;-88
2021/12/06 06:01:54;;;;;;;145.48;39.67;;;;;;;;;;6014000;23;20022;-89
2021/12/06 06:04:20;;;;;;;151.77;39.92;;;;;;;;;;6037936;23;20015;-88
2021/12/06 06:06:46;;;;;;;149.73;42.33;;;;;;;;;;6013987;23;20093;-88
2021/12/06 06:09:12;;;;;;;151.98;39.28;;;;;;;;;;6014669;23;20022;-89
2021/12/06 06:11:40;;;;;;;150.65;38.97;;;;;;;;;;6038532;23;20011;-89
2021/12/06 06:14:07;;;;;;;164.95;41.05;;;;;;;;;;6037953;23;20022;-89
2021/12/06 06:16:36;;;;;;;158.85;40.38;;;;;;;;;;6013687;23;20015;-89
2021/12/06 06:19:03;;;;;;;155.18;40.17;;;;;;;;;;6037467;23;20023;-89
2021/12/06 06:21:29;;;;;;;161.98;40.63;;;;;;;;;;6014124;23;20098;-89
2021/12/06 06:23:56;;;;;;;153.93;39.90;;;;;;;;;;6036579;23;20042;-89
2021/12/06 06:26:22;;;;;;;157.20;39.90;;;;;;;;;;6037824;23;20027;-89
2021/12/06 06:28:48;;;;;;;156.95;39.08;;;;;;;;;;6038107;23;20026;-89
2021/12/06 06:31:15;;;;;;;155.43;40.60;;;;;;;;;;6014335;23;20026;-90
2021/12/06 06:33:41;;;;;;;154.13;39.42;;;;;;;;;;6014668;23;20044;-90
2021/12/06 06:36:07;;;;;;;146.77;39.38;;;;;;;;;;6038568;23;20023;-90
2021/12/06 06:38:33;;;;;;;157.95;39.78;;;;;;;;;;6038141;23;20022;-89
2021/12/06 06:41:00;;;;;;;161.35;39.58;;;;;;;;;;6014243;23;20569;-90
2021/12/06 06:43:26;;;;;;;162.23;41.28;;;;;;;;;;6038099;23;20038;-90
2021/12/06 06:45:52;;;;;;;163.98;41.88;;;;;;;;;;6014523;23;20447;-89
2021/12/06 06:48:18;;;;;;;156.07;39.35;;;;;;;;;;6014310;23;20079;-91
2021/12/06 06:50:44;;;;;;;163.02;42.90;;;;;;;;;;6037667;23;20034;-91
2021/12/06 06:53:10;;;;;;;163.25;41.42;;;;;;;;;;6014190;23;20019;-91
2021/12/06 06:55:36;;;;;;;161.38;43.50;;;;;;;;;;6013401;23;20091;-89
2021/12/06 06:58:02;;;;;;;182.35;41.97;;;;;;;;;;6014681;23;20031;-90
2021/12/06 07:00:31;;;;;;;167.40;41.75;;;;;;;;;;6014375;23;20022;-89
2021/12/06 07:02:57;;;;;;;173.30;40.95;;;;;;;;;;6013854;23;20101;-88
2021/12/06 07:05:24;;;;;;;167.68;40.58;;;;;;;;;;6037181;23;20381;-89
2021/12/06 07:07:50;;;;;;;164.50;42.40;;;;;;;;;;6014022;23;20027;-88
2021/12/06 07:10:16;;;;;;;178.00;44.35;;;;;;;;;;6013877;23;20026;-89
2021/12/06 07:12:46;;;;;;;193.75;43.38;;;;;;;;;;6037717;23;20030;-89
2021/12/06 07:15:13;;;;;;;156.52;41.72;;;;;;;;;;6014373;23;20019;-89
2021/12/06 07:17:43;;;;;;;153.32;42.20;;;;;;;;;;6037682;23;20078;-88
2021/12/06 07:20:09;;;;;;;150.75;40.95;;;;;;;;;;6013879;23;20094;-89
2021/12/06 07:22:36;;;;;;;152.68;39.13;;;;;;;;;;6014002;23;20018;-88
2021/12/06 07:25:03;;;;;;;158.95;39.90;;;;;;;;;;6037154;23;20467;-89
2021/12/06 07:27:29;;;;;;;152.52;40.33;;;;;;;;;;6014110;23;20019;-89
2021/12/06 07:29:55;;;;;;;152.45;40.08;;;;;;;;;;6037675;23;20023;-89
2021/12/06 07:32:20;;;;;;;142.18;39.42;;;;;;;;;;6014353;23;20363;-89
2021/12/06 07:34:49;;;;;;;147.55;41.65;;;;;;;;;;6013906;23;20044;-90
2021/12/06 07:37:15;;;;;;;142.27;38.58;;;;;;;;;;6037966;23;20023;-89
2021/12/06 07:39:41;;;;;;;135.10;37.35;;;;;;;;;;6013150;23;20010;-89
2021/12/06 07:42:11;;;;;;;153.88;39.40;;;;;;;;;;6014280;23;20023;-90
2021/12/06 07:44:37;;;;;;;156.95;41.03;;;;;;;;;;6014108;23;20015;-90
2021/12/06 07:47:04;;;;;;;145.40;37.95;;;;;;;;;;6013542;23;20106;-88
2021/12/06 07:49:30;;;;;;;155.05;39.08;;;;;;;;;;6013457;23;20026;-89
2021/12/06 07:51:56;;;;;;;141.50;36.90;;;;;;;;;;6036351;23;20019;-89
2021/12/06 07:54:22;;;;;;;138.52;35.72;;;;;;;;;;6013207;23;20058;-90
2021/12/06 07:56:48;;;;;;;144.27;38.20;;;;;;;;;;6012521;23;20015;-91
2021/12/06 07:59:15;;;;;;;157.77;39.58;;;;;;;;;;6037734;23;20034;-93
2021/12/06 08:01:41;;;;;;;136.75;37.75;;;;;;;;;;6014046;23;20106;-92
2021/12/06 08:04:07;;;;;;;142.68;37.30;;;;;;;;;;6015925;23;20018;-91
2021/12/06 08:06:34;;;;;;;134.88;36.63;;;;;;;;;;6011959;23;20030;-90
2021/12/06 08:09:00;;;;;;;141.85;38.15;;;;;;;;;;6039057;23;20015;-90
2021/12/06 08:11:26;;;;;;;124.75;36.70;;;;;;;;;;6015762;23;20019;-90
2021/12/06 08:13:56;;;;;;;134.23;36.33;;;;;;;;;;6014570;23;20065;-90
2021/12/06 08:16:27;;;;;;;158.43;38.17;;;;;;;;;;6015670;23;20030;-91
2021/12/06 08:18:53;;;;;;;149.05;37.70;;;;;;;;;;6015838;23;20151;-90
2021/12/06 08:21:21;;;;;;;120.13;34.92;;;;;;;;;;6015859;23;20471;-91
2021/12/06 08:23:49;;;;;;;142.65;39.40;;;;;;;;;;6013643;23;20023;-90
2021/12/06 08:26:15;;;;;;;132.43;35.45;;;;;;;;;;6015189;23;20077;-90
2021/12/06 08:28:42;;;;;;;141.95;36.30;;;;;;;;;;6014904;23;20023;-91
2021/12/06 08:31:08;;;;;;;141.55;36.65;;;;;;;;;;6015785;23;20015;-92
2021/12/06 08:33:35;;;;;;;160.00;37.90;;;;;;;;;;6038563;23;20029;-90
2021/12/06 08:36:01;;;;;;;132.05;38.22;;;;;;;;;;6014508;23;20094;-90
2021/12/06 08:38:28;;;;;;;122.68;35.58;;;;;;;;;;6038926;23;20019;-90
2021/12/06 08:40:55;;;;;;;120.88;35.97;;;;;;;;;;6015161;23;20030;-91
2021/12/06 08:43:21;;;;;;;125.22;35.65;;;;;;;;;;6015314;23;20074;-90
2021/12/06 08:45:49;;;;;;;125.63;36.20;;;;;;;;;;6015184;23;20023;-92
2021/12/06 08:48:15;;;;;;;132.93;37.33;;;;;;;;;;6015453;23;20033;-89
2021/12/06 08:50:41;;;;;;;129.32;35.88;;;;;;;;;;6014557;23;20022;-91
2021/12/06 08:53:07;;;;;;;170.95;43.83;;;;;;;;;;6038868;23;20019;-91
2021/12/06 08:55:33;;;;;;;168.57;42.42;;;;;;;;;;6015116;23;20025;-90
2021/12/06 08:57:59;;;;;;;186.23;46.60;;;;;;;;;;6038224;23;20074;-90
2021/12/06 09:00:27;;;;;;;193.00;45.83;;;;;;;;;;6015842;23;20046;-91
2021/12/06 09:02:53;;;;;;;191.45;47.10;;;;;;;;;;6014207;23;20329;-89
2021/12/06 09:05:20;;;;;;;202.85;49.75;;;;;;;;;;6015205;23;20027;-89
2021/12/06 09:07:47;;;;;;;213.93;49.03;;;;;;;;;;6014197;23;20023;-88
2021/12/06 09:10:13;;;;;;;223.38;50.90;;;;;;;;;;6014535;23;20356;-90
2021/12/06 09:12:40;;;;;;;219.40;49.47;;;;;;;;;;6015223;23;20410;-90
2021/12/06 09:15:11;;;;;;;221.88;53.80;;;;;;;;;;6015049;23;20749;-90
2021/12/06 09:17:38;;;;;;;232.10;55.30;;;;;;;;;;6038608;23;20010;-91
2021/12/06 09:20:05;;;;;;;230.95;53.10;;;;;;;;;;6038027;23;20019;-90
2021/12/06 09:22:31;;;;;;;212.18;50.10;;;;;;;;;;6014352;23;20454;-90
2021/12/06 09:24:57;;;;;;;192.27;45.42;;;;;;;;;;6014580;23;20022;-89
2021/12/06 09:27:23;;;;;;;126.32;34.80;;;;;;;;;;6015063;23;20026;-90
2021/12/06 09:29:49;;;;;;;105.80;32.03;;;;;;;;;;6013863;23;20347;-91
2021/12/06 09:32:16;;;;;;;130.13;34.55;;;;;;;;;;6014629;23;20019;-93
2021/12/06 09:34:44;;;;;;;121.65;34.20;;;;;;;;;;6014733;23;20031;-91
2021/12/06 09:37:10;;;;;;;125.78;35.08;;;;;;;;;;6014121;23;20019;-90
2021/12/06 09:39:37;;;;;;;118.05;32.17;;;;;;;;;;6014955;23;20030;-90
2021/12/06 09:42:04;;;;;;;107.40;30.92;;;;;;;;;;6014357;23;20150;-89
2021/12/06 09:44:30;;;;;;;99.57;30.17;;;;;;;;;;6014619;23;20029;-89
2021/12/06 09:46:56;;;;;;;80.72;27.90;;;;;;;;;;6014308;23;20555;-88
2021/12/06 09:49:23;;;;;;;76.18;26.73;;;;;;;;;;6014084;23;20031;-87
2021/12/06 09:51:51;;;;;;;96.50;28.55;;;;;;;;;;6013801;23;20030;-87
2021/12/06 09:54:22;;;;;;;85.40;28.08;;;;;;;;;;6013990;23;20102;-87
2021/12/06 09:56:48;;;;;;;83.15;26.75;;;;;;;;;;6037621;23;20026;-87
2021/12/06 09:59:15;;;;;;;85.88;29.15;;;;;;;;;;6013366;23;20058;-87
2021/12/06 10:01:43;;;;;;;93.22;29.67;;;;;;;;;;6038286;23;20479;-87
2021/12/06 10:04:11;;;;;;;91.80;30.52;;;;;;;;;;6013957;23;20026;-87
2021/12/06 10:06:38;;;;;;;93.38;29.80;;;;;;;;;;6014355;23;20025;-87
2021/12/06 10:09:09;;;;;;;90.10;28.17;;;;;;;;;;6014475;23;20046;-87
2021/12/06 10:11:36;;;;;;;90.75;28.90;;;;;;;;;;6014451;23;20098;-87
2021/12/06 10:14:02;;;;;;;81.93;27.80;;;;;;;;;;6013158;23;20081;-87
2021/12/06 10:16:28;;;;;;;83.47;27.92;;;;;;;;;;6015051;23;20010;-87
2021/12/06 10:18:55;;;;;;;81.50;27.95;;;;;;;;;;6014149;23;20030;-87
2021/12/06 10:21:24;;;;;;;70.57;24.40;;;;;;;;;;6014513;23;20019;-88
2021/12/06 10:23:50;;;;;;;74.55;25.95;;;;;;;;;;6014986;23;20046;-88
2021/12/06 10:26:17;;;;;;;80.07;26.60;;;;;;;;;;6014912;23;20474;-88
2021/12/06 10:28:44;;;;;;;73.30;25.35;;;;;;;;;;6014861;23;20022;-88
2021/12/06 10:31:12;;;;;;;77.35;25.92;;;;;;;;;;6015131;23;20014;-89
2021/12/06 10:33:39;;;;;;;102.80;28.17;;;;;;;;;;6014933;23;20538;-91
2021/12/06 10:36:07;;;;;;;104.93;25.58;;;;;;;;;;6014480;23;20026;-89
2021/12/06 10:38:34;;;;;;;152.30;30.58;;;;;;;;;;6015335;23;20021;-88
2021/12/06 10:41:03;;;;;;;83.82;26.27;;;;;;;;;;6014996;23;20022;-89
2021/12/06 10:43:29;;;;;;;408.00;62.35;;;;;;;;;;6015085;23;20067;-89
2021/12/06 10:45:56;;;;;;;67.70;22.90;;;;;;;;;;6014799;23;20023;-87
2021/12/06 10:48:28;;;;;;;67.03;23.20;;;;;;;;;;6014257;23;20027;-88
2021/12/06 10:50:54;;;;;;;65.43;22.80;;;;;;;;;;6014687;23;20026;-88
2021/12/06 10:53:21;;;;;;;75.13;22.63;;;;;;;;;;6014868;23;20038;-88
2021/12/06 10:55:49;;;;;;;60.28;21.48;;;;;;;;;;6015182;23;20015;-88
2021/12/06 10:58:16;;;;;;;66.88;22.58;;;;;;;;;;6038296;23;20467;-88
2021/12/06 11:00:44;;;;;;;57.92;20.83;;;;;;;;;;6014209;23;20413;-88
2021/12/06 11:03:24;;;;;;;86.90;23.50;;;;;;;;;;6038012;23;20097;-90
2021/12/06 11:05:54;;;;;;;61.55;22.48;;;;;;;;;;6014828;23;20098;-89
2021/12/06 11:08:20;;;;;;;716.42;102.55;;;;;;;;;;6014804;23;20105;-89
2021/12/06 11:10:48;;;;;;;81.13;24.38;;;;;;;;;;6014711;23;20291;-88
2021/12/06 11:13:23;;;;;;;259.95;40.90;;;;;;;;;;6015016;23;20027;-89
2021/12/06 11:16:05;;;;;;;234.35;38.85;;;;;;;;;;6038348;23;20529;-88
2021/12/06 11:18:32;;;;;;;84.97;25.35;;;;;;;;;;6035420;23;20022;-88
2021/12/06 11:20:58;;;;;;;67.25;22.15;;;;;;;;;;6014127;23;20015;-89
2021/12/06 11:23:24;;;;;;;69.60;23.65;;;;;;;;;;6014699;23;20023;-88
2021/12/06 11:26:02;;;;;;;64.93;22.80;;;;;;;;;;6037943;23;20070;-88
2021/12/06 11:28:32;;;;;;;70.38;24.25;;;;;;;;;;6038282;23;20030;-88
2021/12/06 11:31:02;;;;;;;72.00;24.20;;;;;;;;;;6013965;23;20019;-89
2021/12/06 11:33:33;;;;;;;70.50;23.55;;;;;;;;;;6015253;23;20025;-89
2021/12/06 11:36:00;;;;;;;71.57;23.55;;;;;;;;;;6014473;23;20019;-89
2021/12/06 11:38:28;;;;;;;73.20;23.27;;;;;;;;;;6016944;23;20351;-90
2021/12/06 11:41:00;;;;;;;79.03;26.00;;;;;;;;;;6016832;23;20025;-90
2021/12/06 11:43:26;;;;;;;74.90;24.65;;;;;;;;;;6017051;23;20022;-89
2021/12/06 11:45:56;;;;;;;71.30;24.38;;;;;;;;;;6016035;23;20015;-89
2021/12/06 11:48:26;;;;;;;61.08;19.48;;;;;;;;;;6040330;23;20030;-90
2021/12/06 11:50:54;;;;;;;58.53;19.73;;;;;;;;;;6016533;23;20578;-89
2021/12/06 11:53:22;;;;;;;60.38;21.35;;;;;;;;;;6016179;23;20022;-89
2021/12/06 11:55:53;;;;;;;66.35;22.63;;;;;;;;;;6039637;23;20074;-90
2021/12/06 11:58:31;;;;;;;61.60;22.23;;;;;;;;;;6016777;23;20019;-89
2021/12/06 12:01:08;;;;;;;69.97;23.60;;;;;;;;;;6016111;23;20026;-89
2021/12/06 12:03:34;;;;;;;67.50;23.95;;;;;;;;;;6015768;23;20070;-88
2021/12/06 12:06:01;;;;;;;65.50;23.92;;;;;;;;;;6015226;23;20319;-87
2021/12/06 12:08:31;;;;;;;103.45;41.15;;;;;;;;;;6039694;23;20019;-89
2021/12/06 12:10:56;;;;;;;67.25;22.75;;;;;;;;;;6040464;23;20063;-90
2021/12/06 12:13:28;;;;;;;67.63;22.35;;;;;;;;;;6016659;23;20026;-89
2021/12/06 12:15:56;;;;;;;79.85;22.88;;;;;;;;;;6015822;23;20395;-90
2021/12/06 12:18:22;;;;;;;77.75;25.33;;;;;;;;;;6016023;23;20034;-92
2021/12/06 12:20:49;;;;;;;71.00;23.77;;;;;;;;;;6016583;23;20383;-93
2021/12/06 12:23:15;;;;;;;78.90;25.75;;;;;;;;;;6016494;23;20054;-91
2021/12/06 12:25:49;;;;;;;72.65;25.85;;;;;;;;;;6016452;23;20089;-92
2021/12/06 12:28:20;;;;;;;73.13;24.55;;;;;;;;;;6016417;23;20022;-93
2021/12/06 12:30:51;;;;;;;75.05;23.73;;;;;;;;;;6015984;23;20022;-95
2021/12/06 12:33:19;;;;;;;91.20;25.77;;;;;;;;;;6016864;23;20455;-92
2021/12/06 12:35:46;;;;;;;70.40;25.13;;;;;;;;;;6016589;23;20054;-95
2021/12/06 12:38:13;;;;;;;81.38;27.08;;;;;;;;;;6016256;23;20023;-95
2021/12/06 12:40:39;;;;;;;75.30;25.00;;;;;;;;;;6017815;23;20522;-95
2021/12/06 12:43:06;;;;;;;102.18;29.40;;;;;;;;;;6016752;23;20047;-95
2021/12/06 12:45:34;;;;;;;1003.17;126.55;;;;;;;;;;6016131;23;20062;-94
2021/12/06 12:48:00;;;;;;;99.78;31.30;;;;;;;;;;6016043;23;20486;-95
2021/12/06 12:50:30;;;;;;;109.30;31.83;;;;;;;;;;6016251;23;20094;-93
2021/12/06 12:52:59;;;;;;;439.27;68.53;;;;;;;;;;6015793;23;20072;-94
2021/12/06 12:55:36;;;;;;;110.47;36.03;;;;;;;;;;6016021;23;20034;-93
2021/12/06 12:58:05;;;;;;;104.60;32.25;;;;;;;;;;6016501;23;20037;-92
2021/12/06 13:00:31;;;;;;;110.32;32.38;;;;;;;;;;6016675;23;20019;-93
2021/12/06 13:02:58;;;;;;;110.00;32.60;;;;;;;;;;6016254;23;20011;-93
2021/12/06 13:05:29;;;;;;;310.52;53.25;;;;;;;;;;6039882;23;20027;-93
2021/12/06 13:07:59;;;;;;;150.70;37.80;;;;;;;;;;6039524;23;20566;-93
2021/12/06 13:10:29;;;;;;;1999.90;431.92;;;;;;;;;;6039677;23;20050;-95
2021/12/06 13:13:05;;;;;;;137.73;37.53;;;;;;;;;;6015427;23;20018;-93
2021/12/06 13:15:57;;;;;;;1950.55;334.95;;;;;;;;;;6016785;23;20026;-91
2021/12/06 13:18:37;;;;;;;267.90;53.97;;;;;;;;;;6016768;23;20351;-93
2021/12/06 13:21:26;;;;;;;122.72;37.30;;;;;;;;;;6016242;23;20329;-92
2021/12/06 13:24:04;;;;;;;131.63;40.05;;;;;;;;;;6016071;23;20050;-94
2021/12/06 13:26:37;;;;;;;664.88;86.10;;;;;;;;;;6015542;23;20030;-93
2021/12/06 13:29:05;;;;;;;134.43;41.88;;;;;;;;;;6039260;23;20023;-94
2021/12/06 13:31:31;;;;;;;213.75;44.42;;;;;;;;;;6016624;23;20034;-94
2021/12/06 13:33:58;;;;;;;148.35;40.50;;;;;;;;;;6017825;23;20021;-93
2021/12/06 13:36:41;;;;;;;146.23;42.15;;;;;;;;;;6031361;23;20066;-96
2021/12/06 13:39:42;;;;;;;164.50;48.55;;;;;;;;;;6066347;23;20023;-96
2021/12/06 13:42:38;;;;;;;157.65;44.08;;;;;;;;;;6085003;23;20072;-96
2021/12/06 13:45:06;;;;;;;153.93;42.92;;;;;;;;;;6063265;23;20019;-96
2021/12/06 13:54:02;;;;;;;175.32;50.90;;;;;;;;;;6150119;23;20021;-95
2021/12/06 13:56:46;;;;;;;170.15;50.58;;;;;;;;;;6155511;23;20017;-94
2021/12/06 13:59:13;;;;;;;167.13;43.17;;;;;;;;;;6154037;23;20006;-96
2021/12/06 14:01:45;;;;;;;175.70;50.80;;;;;;;;;;6133395;23;20006;-96
2021/12/06 14:04:13;;;;;;;168.52;48.85;;;;;;;;;;6123471;23;20021;-96
2021/12/06 14:06:44;;;;;;;180.93;53.42;;;;;;;;;;6129632;23;20009;-96
2021/12/06 14:09:10;;;;;;;171.00;53.42;;;;;;;;;;6155261;23;20096;-96
2021/12/06 14:11:36;;;;;;;187.35;55.13;;;;;;;;;;6156765;23;20002;-96
2021/12/06 14:14:10;;;;;;;158.80;44.05;;;;;;;;;;6148327;23;20009;-95
2021/12/06 14:16:37;;;;;;;160.82;45.97;;;;;;;;;;6124154;23;20048;-96
2021/12/06 14:19:03;;;;;;;159.40;45.97;;;;;;;;;;6125923;23;20008;-96
2021/12/06 14:21:29;;;;;;;148.85;43.75;;;;;;;;;;6137462;23;20018;-96
2021/12/06 14:23:57;;;;;;;157.68;44.42;;;;;;;;;;6145251;23;20017;-96
2021/12/06 14:26:24;;;;;;;167.43;54.45;;;;;;;;;;6116758;23;20028;-95
2021/12/06 14:28:53;;;;;;;165.13;49.88;;;;;;;;;;6145668;23;20022;-96
2021/12/06 14:31:19;;;;;;;441.92;78.00;;;;;;;;;;6144280;23;20017;-96